sensor_id;sensor_type;location;lat;lon;timestamp;P1;durP1;ratioP1;P2;durP2;ratioP2
70313;SDS011;57725;47.526;18.986;2022-09-23T00:00:41;4.78;;;3.72;;
70313;SDS011;57725;47.526;18.986;2022-09-23T00:03:07;4.90;;;3.17;;
70313;SDS011;57725;47.526;18.986;2022-09-23T00:05:35;8.15;;;3.97;;
70313;SDS011;57725;47.526;18.986;2022-09-23T00:08:04;5.32;;;3.42;;
70313;SDS011;57725;47.526;18.986;2022-09-23T00:10:35;5.05;;;3.92;;
70313;SDS011;57725;47.526;18.986;2022-09-23T00:13:03;5.15;;;3.50;;
70313;SDS011;57725;47.526;18.986;2022-09-23T00:15:35;5.07;;;3.72;;
70313;SDS011;57725;47.526;18.986;2022-09-23T00:18:02;5.97;;;3.90;;
70313;SDS011;57725;47.526;18.986;2022-09-23T00:20:28;5.05;;;3.38;;
70313;SDS011;57725;47.526;18.986;2022-09-23T00:22:56;6.57;;;3.55;;
70313;SDS011;57725;47.526;18.986;2022-09-23T00:25:21;5.57;;;3.78;;
70313;SDS011;57725;47.526;18.986;2022-09-23T00:27:47;4.97;;;3.85;;
70313;SDS011;57725;47.526;18.986;2022-09-23T00:30:14;5.22;;;3.83;;
70313;SDS011;57725;47.526;18.986;2022-09-23T00:32:40;5.57;;;3.85;;
70313;SDS011;57725;47.526;18.986;2022-09-23T00:35:05;5.63;;;3.72;;
70313;SDS011;57725;47.526;18.986;2022-09-23T00:37:34;4.60;;;3.65;;
70313;SDS011;57725;47.526;18.986;2022-09-23T00:40:00;4.10;;;3.45;;
70313;SDS011;57725;47.526;18.986;2022-09-23T00:42:26;4.60;;;3.60;;
70313;SDS011;57725;47.526;18.986;2022-09-23T00:44:55;5.28;;;3.53;;
70313;SDS011;57725;47.526;18.986;2022-09-23T00:50:04;4.93;;;3.33;;
70313;SDS011;57725;47.526;18.986;2022-09-23T00:52:36;5.10;;;3.63;;
70313;SDS011;57725;47.526;18.986;2022-09-23T00:55:04;4.50;;;3.50;;
70313;SDS011;57725;47.526;18.986;2022-09-23T00:57:33;4.88;;;3.38;;
70313;SDS011;57725;47.526;18.986;2022-09-23T01:00:01;4.32;;;3.55;;
70313;SDS011;57725;47.526;18.986;2022-09-23T01:02:28;5.68;;;3.28;;
70313;SDS011;57725;47.526;18.986;2022-09-23T01:04:55;5.15;;;3.28;;
70313;SDS011;57725;47.526;18.986;2022-09-23T01:07:20;5.05;;;3.45;;
70313;SDS011;57725;47.526;18.986;2022-09-23T01:09:46;4.43;;;3.30;;
70313;SDS011;57725;47.526;18.986;2022-09-23T01:29:17;4.63;;;3.57;;
70313;SDS011;57725;47.526;18.986;2022-09-23T01:34:48;4.70;;;3.30;;
70313;SDS011;57725;47.526;18.986;2022-09-23T01:40:04;5.00;;;3.67;;
70313;SDS011;57725;47.526;18.986;2022-09-23T01:42:40;4.97;;;3.35;;
70313;SDS011;57725;47.526;18.986;2022-09-23T01:45:16;4.85;;;3.30;;
70313;SDS011;57725;47.526;18.986;2022-09-23T01:48:00;5.65;;;3.53;;
70313;SDS011;57725;47.526;18.986;2022-09-23T01:50:55;5.18;;;3.25;;
70313;SDS011;57725;47.526;18.986;2022-09-23T01:53:34;5.03;;;3.30;;
70313;SDS011;57725;47.526;18.986;2022-09-23T01:56:04;4.00;;;2.97;;
70313;SDS011;57725;47.526;18.986;2022-09-23T01:58:45;3.95;;;2.90;;
70313;SDS011;57725;47.526;18.986;2022-09-23T02:07:50;4.93;;;3.40;;
70313;SDS011;57725;47.526;18.986;2022-09-23T02:12:53;4.70;;;3.35;;
70313;SDS011;57725;47.526;18.986;2022-09-23T02:15:27;4.57;;;3.35;;
70313;SDS011;57725;47.526;18.986;2022-09-23T02:17:58;4.55;;;3.50;;
70313;SDS011;57725;47.526;18.986;2022-09-23T02:20:32;4.82;;;3.10;;
70313;SDS011;57725;47.526;18.986;2022-09-23T02:30:38;4.73;;;2.90;;
70313;SDS011;57725;47.526;18.986;2022-09-23T02:33:15;3.70;;;3.30;;
70313;SDS011;57725;47.526;18.986;2022-09-23T02:36:07;4.60;;;3.20;;
70313;SDS011;57725;47.526;18.986;2022-09-23T02:38:43;4.78;;;3.28;;
70313;SDS011;57725;47.526;18.986;2022-09-23T02:41:22;5.25;;;3.28;;
70313;SDS011;57725;47.526;18.986;2022-09-23T02:46:32;4.32;;;3.38;;
70313;SDS011;57725;47.526;18.986;2022-09-23T02:49:00;3.95;;;3.10;;
70313;SDS011;57725;47.526;18.986;2022-09-23T02:51:29;4.35;;;2.90;;
70313;SDS011;57725;47.526;18.986;2022-09-23T02:53:58;3.80;;;2.97;;
70313;SDS011;57725;47.526;18.986;2022-09-23T02:56:27;4.65;;;3.25;;
70313;SDS011;57725;47.526;18.986;2022-09-23T02:58:55;4.95;;;2.63;;
70313;SDS011;57725;47.526;18.986;2022-09-23T03:04:08;4.43;;;3.10;;
70313;SDS011;57725;47.526;18.986;2022-09-23T03:09:26;4.90;;;3.40;;
70313;SDS011;57725;47.526;18.986;2022-09-23T03:14:52;4.38;;;3.17;;
70313;SDS011;57725;47.526;18.986;2022-09-23T03:17:28;4.75;;;3.03;;
70313;SDS011;57725;47.526;18.986;2022-09-23T03:22:41;4.53;;;3.03;;
70313;SDS011;57725;47.526;18.986;2022-09-23T03:25:14;3.88;;;3.00;;
70313;SDS011;57725;47.526;18.986;2022-09-23T03:27:42;4.10;;;3.05;;
70313;SDS011;57725;47.526;18.986;2022-09-23T03:30:09;4.60;;;2.97;;
70313;SDS011;57725;47.526;18.986;2022-09-23T03:32:37;4.32;;;3.05;;
70313;SDS011;57725;47.526;18.986;2022-09-23T03:35:06;4.50;;;2.90;;
70313;SDS011;57725;47.526;18.986;2022-09-23T03:37:38;3.67;;;2.85;;
70313;SDS011;57725;47.526;18.986;2022-09-23T03:42:57;4.57;;;2.85;;
70313;SDS011;57725;47.526;18.986;2022-09-23T03:45:29;5.85;;;3.00;;
70313;SDS011;57725;47.526;18.986;2022-09-23T03:47:56;4.05;;;2.97;;
70313;SDS011;57725;47.526;18.986;2022-09-23T03:50:22;4.82;;;3.08;;
70313;SDS011;57725;47.526;18.986;2022-09-23T03:52:48;4.38;;;3.03;;
70313;SDS011;57725;47.526;18.986;2022-09-23T03:55:14;3.92;;;3.10;;
70313;SDS011;57725;47.526;18.986;2022-09-23T03:57:44;4.57;;;2.97;;
70313;SDS011;57725;47.526;18.986;2022-09-23T04:00:12;3.83;;;2.65;;
70313;SDS011;57725;47.526;18.986;2022-09-23T04:02:38;5.22;;;3.28;;
70313;SDS011;57725;47.526;18.986;2022-09-23T04:05:05;3.28;;;2.97;;
70313;SDS011;57725;47.526;18.986;2022-09-23T04:07:31;4.00;;;2.47;;
70313;SDS011;57725;47.526;18.986;2022-09-23T04:09:57;4.50;;;3.33;;
70313;SDS011;57725;47.526;18.986;2022-09-23T04:12:22;4.50;;;3.08;;
70313;SDS011;57725;47.526;18.986;2022-09-23T04:14:48;6.43;;;3.00;;
70313;SDS011;57725;47.526;18.986;2022-09-23T04:17:15;3.55;;;2.83;;
70313;SDS011;57725;47.526;18.986;2022-09-23T04:19:43;4.18;;;3.13;;
70313;SDS011;57725;47.526;18.986;2022-09-23T04:22:11;4.53;;;3.42;;
70313;SDS011;57725;47.526;18.986;2022-09-23T04:24:40;4.53;;;3.05;;
70313;SDS011;57725;47.526;18.986;2022-09-23T04:27:05;4.85;;;2.63;;
70313;SDS011;57725;47.526;18.986;2022-09-23T04:29:31;3.80;;;2.78;;
70313;SDS011;57725;47.526;18.986;2022-09-23T04:31:57;4.45;;;3.05;;
70313;SDS011;57725;47.526;18.986;2022-09-23T04:34:25;3.67;;;2.78;;
70313;SDS011;57725;47.526;18.986;2022-09-23T04:36:50;4.47;;;2.85;;
70313;SDS011;57725;47.526;18.986;2022-09-23T04:39:18;5.38;;;3.13;;
70313;SDS011;57725;47.526;18.986;2022-09-23T04:41:45;4.82;;;2.92;;
70313;SDS011;57725;47.526;18.986;2022-09-23T04:44:11;4.63;;;3.38;;
70313;SDS011;57725;47.526;18.986;2022-09-23T04:46:38;3.72;;;2.75;;
70313;SDS011;57725;47.526;18.986;2022-09-23T04:49:05;3.85;;;2.80;;
70313;SDS011;57725;47.526;18.986;2022-09-23T04:51:30;4.15;;;3.03;;
70313;SDS011;57725;47.526;18.986;2022-09-23T04:54:04;3.42;;;2.78;;
70313;SDS011;57725;47.526;18.986;2022-09-23T04:56:32;4.05;;;2.60;;
70313;SDS011;57725;47.526;18.986;2022-09-23T04:58:57;4.68;;;3.35;;
70313;SDS011;57725;47.526;18.986;2022-09-23T05:01:26;4.40;;;2.67;;
70313;SDS011;57725;47.526;18.986;2022-09-23T05:03:58;4.43;;;2.78;;
70313;SDS011;57725;47.526;18.986;2022-09-23T05:06:26;4.70;;;3.05;;
70313;SDS011;57725;47.526;18.986;2022-09-23T05:08:54;3.58;;;2.65;;
70313;SDS011;57725;47.526;18.986;2022-09-23T05:11:20;3.53;;;2.97;;
70313;SDS011;57725;47.526;18.986;2022-09-23T05:13:47;2.70;;;2.20;;
70313;SDS011;57725;47.526;18.986;2022-09-23T05:16:13;4.18;;;2.80;;
70313;SDS011;57725;47.526;18.986;2022-09-23T05:18:40;3.35;;;2.67;;
70313;SDS011;57725;47.526;18.986;2022-09-23T05:21:08;4.10;;;2.92;;
70313;SDS011;57725;47.526;18.986;2022-09-23T05:23:45;4.72;;;3.17;;
70313;SDS011;57725;47.526;18.986;2022-09-23T05:26:12;3.03;;;2.22;;
70313;SDS011;57725;47.526;18.986;2022-09-23T05:28:38;3.72;;;2.70;;
70313;SDS011;57725;47.526;18.986;2022-09-23T05:33:41;3.55;;;2.88;;
70313;SDS011;57725;47.526;18.986;2022-09-23T05:36:07;3.45;;;2.80;;
70313;SDS011;57725;47.526;18.986;2022-09-23T05:38:35;4.55;;;3.08;;
70313;SDS011;57725;47.526;18.986;2022-09-23T05:41:02;3.67;;;2.42;;
70313;SDS011;57725;47.526;18.986;2022-09-23T05:43:29;4.60;;;2.70;;
70313;SDS011;57725;47.526;18.986;2022-09-23T05:46:01;4.30;;;2.90;;
70313;SDS011;57725;47.526;18.986;2022-09-23T05:48:31;4.22;;;2.58;;
70313;SDS011;57725;47.526;18.986;2022-09-23T05:50:59;3.63;;;2.53;;
70313;SDS011;57725;47.526;18.986;2022-09-23T05:53:29;4.28;;;3.13;;
70313;SDS011;57725;47.526;18.986;2022-09-23T05:55:57;3.35;;;2.83;;
70313;SDS011;57725;47.526;18.986;2022-09-23T05:58:25;3.88;;;2.90;;
70313;SDS011;57725;47.526;18.986;2022-09-23T06:00:51;3.55;;;2.65;;
70313;SDS011;57725;47.526;18.986;2022-09-23T06:03:18;4.13;;;2.53;;
70313;SDS011;57725;47.526;18.986;2022-09-23T06:05:46;4.38;;;2.65;;
70313;SDS011;57725;47.526;18.986;2022-09-23T06:08:12;4.50;;;3.03;;
70313;SDS011;57725;47.526;18.986;2022-09-23T06:10:39;2.97;;;2.50;;
70313;SDS011;57725;47.526;18.986;2022-09-23T06:13:06;3.22;;;2.28;;
70313;SDS011;57725;47.526;18.986;2022-09-23T06:15:32;3.63;;;2.55;;
70313;SDS011;57725;47.526;18.986;2022-09-23T06:17:58;4.07;;;2.75;;
70313;SDS011;57725;47.526;18.986;2022-09-23T06:20:26;4.22;;;2.17;;
70313;SDS011;57725;47.526;18.986;2022-09-23T06:22:52;3.10;;;2.53;;
70313;SDS011;57725;47.526;18.986;2022-09-23T06:25:35;3.50;;;2.83;;
70313;SDS011;57725;47.526;18.986;2022-09-23T06:28:04;4.50;;;2.40;;
70313;SDS011;57725;47.526;18.986;2022-09-23T06:30:36;5.05;;;2.70;;
70313;SDS011;57725;47.526;18.986;2022-09-23T06:33:06;13.20;;;2.72;;
70313;SDS011;57725;47.526;18.986;2022-09-23T06:35:34;5.28;;;2.88;;
70313;SDS011;57725;47.526;18.986;2022-09-23T06:38:02;3.40;;;2.40;;
70313;SDS011;57725;47.526;18.986;2022-09-23T06:40:28;3.13;;;2.42;;
70313;SDS011;57725;47.526;18.986;2022-09-23T06:42:58;4.78;;;2.90;;
70313;SDS011;57725;47.526;18.986;2022-09-23T06:45:25;4.35;;;2.60;;
70313;SDS011;57725;47.526;18.986;2022-09-23T06:47:55;3.72;;;2.50;;
70313;SDS011;57725;47.526;18.986;2022-09-23T06:50:22;3.58;;;3.03;;
70313;SDS011;57725;47.526;18.986;2022-09-23T06:52:52;5.60;;;2.90;;
70313;SDS011;57725;47.526;18.986;2022-09-23T06:55:19;3.35;;;2.33;;
70313;SDS011;57725;47.526;18.986;2022-09-23T06:57:48;4.47;;;2.53;;
70313;SDS011;57725;47.526;18.986;2022-09-23T07:00:14;4.20;;;2.60;;
70313;SDS011;57725;47.526;18.986;2022-09-23T07:02:42;3.50;;;2.83;;
70313;SDS011;57725;47.526;18.986;2022-09-23T07:05:07;3.15;;;2.42;;
70313;SDS011;57725;47.526;18.986;2022-09-23T07:07:35;3.13;;;2.47;;
70313;SDS011;57725;47.526;18.986;2022-09-23T07:10:02;3.70;;;2.67;;
70313;SDS011;57725;47.526;18.986;2022-09-23T07:12:33;2.65;;;2.22;;
70313;SDS011;57725;47.526;18.986;2022-09-23T07:14:58;3.53;;;2.63;;
70313;SDS011;57725;47.526;18.986;2022-09-23T07:17:26;2.55;;;2.15;;
70313;SDS011;57725;47.526;18.986;2022-09-23T07:19:54;2.47;;;2.17;;
70313;SDS011;57725;47.526;18.986;2022-09-23T07:22:20;5.00;;;2.88;;
70313;SDS011;57725;47.526;18.986;2022-09-23T07:24:51;4.20;;;2.55;;
70313;SDS011;57725;47.526;18.986;2022-09-23T07:27:21;3.40;;;1.90;;
70313;SDS011;57725;47.526;18.986;2022-09-23T07:29:52;3.42;;;2.42;;
70313;SDS011;57725;47.526;18.986;2022-09-23T07:32:21;4.22;;;2.78;;
70313;SDS011;57725;47.526;18.986;2022-09-23T07:34:47;4.03;;;2.67;;
70313;SDS011;57725;47.526;18.986;2022-09-23T07:37:13;3.08;;;2.40;;
70313;SDS011;57725;47.526;18.986;2022-09-23T07:39:40;3.15;;;2.45;;
70313;SDS011;57725;47.526;18.986;2022-09-23T07:42:06;4.03;;;2.92;;
70313;SDS011;57725;47.526;18.986;2022-09-23T07:44:32;3.90;;;2.72;;
70313;SDS011;57725;47.526;18.986;2022-09-23T07:47:00;2.72;;;2.25;;
70313;SDS011;57725;47.526;18.986;2022-09-23T07:49:28;3.30;;;2.28;;
70313;SDS011;57725;47.526;18.986;2022-09-23T07:51:53;2.90;;;2.30;;
70313;SDS011;57725;47.526;18.986;2022-09-23T07:54:21;1175.80;;;124.28;;
70313;SDS011;57725;47.526;18.986;2022-09-23T07:56:49;1452.45;;;143.73;;
70313;SDS011;57725;47.526;18.986;2022-09-23T07:59:15;1211.57;;;125.68;;
70313;SDS011;57725;47.526;18.986;2022-09-23T08:01:45;1286.28;;;131.68;;
70313;SDS011;57725;47.526;18.986;2022-09-23T08:06:51;1079.78;;;118.35;;
70313;SDS011;57725;47.526;18.986;2022-09-23T08:09:22;1003.65;;;113.05;;
70313;SDS011;57725;47.526;18.986;2022-09-23T08:11:50;940.40;;;102.35;;
70313;SDS011;57725;47.526;18.986;2022-09-23T08:14:16;906.10;;;97.18;;
70313;SDS011;57725;47.526;18.986;2022-09-23T08:16:43;863.20;;;94.18;;
70313;SDS011;57725;47.526;18.986;2022-09-23T08:19:09;783.15;;;92.07;;
70313;SDS011;57725;47.526;18.986;2022-09-23T08:21:38;781.35;;;87.88;;
70313;SDS011;57725;47.526;18.986;2022-09-23T08:24:06;716.67;;;81.00;;
70313;SDS011;57725;47.526;18.986;2022-09-23T08:26:50;699.30;;;77.35;;
70313;SDS011;57725;47.526;18.986;2022-09-23T08:29:17;611.17;;;69.95;;
70313;SDS011;57725;47.526;18.986;2022-09-23T08:31:44;600.60;;;69.45;;
70313;SDS011;57725;47.526;18.986;2022-09-23T08:34:10;597.88;;;67.45;;
70313;SDS011;57725;47.526;18.986;2022-09-23T08:36:43;548.40;;;64.90;;
70313;SDS011;57725;47.526;18.986;2022-09-23T08:39:13;522.45;;;59.13;;
70313;SDS011;57725;47.526;18.986;2022-09-23T08:44:24;492.08;;;56.08;;
70313;SDS011;57725;47.526;18.986;2022-09-23T08:47:02;481.50;;;54.17;;
70313;SDS011;57725;47.526;18.986;2022-09-23T08:49:39;448.73;;;52.50;;
70313;SDS011;57725;47.526;18.986;2022-09-23T08:54:45;423.13;;;50.57;;
70313;SDS011;57725;47.526;18.986;2022-09-23T08:57:14;396.05;;;46.60;;
70313;SDS011;57725;47.526;18.986;2022-09-23T08:59:54;398.38;;;47.83;;
70313;SDS011;57725;47.526;18.986;2022-09-23T09:02:22;360.05;;;42.10;;
70313;SDS011;57725;47.526;18.986;2022-09-23T09:04:58;359.58;;;41.67;;
70313;SDS011;57725;47.526;18.986;2022-09-23T09:07:28;313.45;;;38.35;;
70313;SDS011;57725;47.526;18.986;2022-09-23T09:13:06;294.52;;;36.65;;
70313;SDS011;57725;47.526;18.986;2022-09-23T09:15:46;255.38;;;31.52;;
70313;SDS011;57725;47.526;18.986;2022-09-23T09:18:23;263.67;;;33.40;;
70313;SDS011;57725;47.526;18.986;2022-09-23T09:20:56;265.85;;;33.58;;
70313;SDS011;57725;47.526;18.986;2022-09-23T09:24:06;259.42;;;33.20;;
70313;SDS011;57725;47.526;18.986;2022-09-23T09:26:21;248.13;;;32.47;;
70313;SDS011;57725;47.526;18.986;2022-09-23T09:29:08;232.10;;;29.85;;
70313;SDS011;57725;47.526;18.986;2022-09-23T09:31:46;209.60;;;28.42;;
70313;SDS011;57725;47.526;18.986;2022-09-23T09:39:52;183.00;;;24.00;;
70313;SDS011;57725;47.526;18.986;2022-09-23T09:42:39;163.18;;;24.73;;
70313;SDS011;57725;47.526;18.986;2022-09-23T09:50:46;148.55;;;21.38;;
70313;SDS011;57725;47.526;18.986;2022-09-23T09:53:16;157.50;;;22.45;;
70313;SDS011;57725;47.526;18.986;2022-09-23T09:56:09;154.45;;;21.27;;
70313;SDS011;57725;47.526;18.986;2022-09-23T09:58:42;142.27;;;22.15;;
70313;SDS011;57725;47.526;18.986;2022-09-23T10:01:20;116.15;;;17.42;;
70313;SDS011;57725;47.526;18.986;2022-09-23T10:03:45;130.30;;;19.15;;
70313;SDS011;57725;47.526;18.986;2022-09-23T10:06:18;119.30;;;17.27;;
70313;SDS011;57725;47.526;18.986;2022-09-23T10:14:37;116.65;;;18.38;;
70313;SDS011;57725;47.526;18.986;2022-09-23T10:17:03;102.40;;;16.02;;
70313;SDS011;57725;47.526;18.986;2022-09-23T10:19:35;103.63;;;16.02;;
70313;SDS011;57725;47.526;18.986;2022-09-23T10:22:14;93.68;;;16.00;;
70313;SDS011;57725;47.526;18.986;2022-09-23T10:24:46;88.95;;;14.18;;
70313;SDS011;57725;47.526;18.986;2022-09-23T10:27:27;98.85;;;17.63;;
70313;SDS011;57725;47.526;18.986;2022-09-23T10:29:56;91.90;;;13.90;;
70313;SDS011;57725;47.526;18.986;2022-09-23T10:32:30;84.55;;;14.50;;
70313;SDS011;57725;47.526;18.986;2022-09-23T10:35:01;87.88;;;15.95;;
70313;SDS011;57725;47.526;18.986;2022-09-23T10:40:18;81.07;;;14.07;;
70313;SDS011;57725;47.526;18.986;2022-09-23T10:46:18;72.70;;;12.25;;
70313;SDS011;57725;47.526;18.986;2022-09-23T11:05:49;59.35;;;10.65;;
70313;SDS011;57725;47.526;18.986;2022-09-23T11:11:43;48.78;;;9.30;;
70313;SDS011;57725;47.526;18.986;2022-09-23T11:39:16;1823.72;;;266.20;;
70313;SDS011;57725;47.526;18.986;2022-09-23T11:41:43;1734.72;;;263.50;;
70313;SDS011;57725;47.526;18.986;2022-09-23T11:47:00;1600.30;;;245.27;;
70313;SDS011;57725;47.526;18.986;2022-09-23T11:49:33;1468.60;;;237.43;;
70313;SDS011;57725;47.526;18.986;2022-09-23T11:52:05;1423.93;;;222.60;;
70313;SDS011;57725;47.526;18.986;2022-09-23T11:54:41;1350.68;;;213.60;;
70313;SDS011;57725;47.526;18.986;2022-09-23T11:57:31;1307.57;;;221.65;;
70313;SDS011;57725;47.526;18.986;2022-09-23T12:00:01;1228.57;;;201.30;;
70313;SDS011;57725;47.526;18.986;2022-09-23T12:06:11;1041.07;;;169.10;;
70313;SDS011;57725;47.526;18.986;2022-09-23T12:11:20;898.90;;;157.73;;
70313;SDS011;57725;47.526;18.986;2022-09-23T12:13:53;904.40;;;151.00;;
70313;SDS011;57725;47.526;18.986;2022-09-23T12:22:42;783.25;;;132.43;;
70313;SDS011;57725;47.526;18.986;2022-09-23T12:28:05;732.97;;;131.65;;
70313;SDS011;57725;47.526;18.986;2022-09-23T12:30:46;719.80;;;123.05;;
70313;SDS011;57725;47.526;18.986;2022-09-23T12:33:23;732.22;;;122.85;;
70313;SDS011;57725;47.526;18.986;2022-09-23T12:35:54;699.75;;;120.65;;
70313;SDS011;57725;47.526;18.986;2022-09-23T12:38:32;652.13;;;115.25;;
70313;SDS011;57725;47.526;18.986;2022-09-23T12:41:00;626.65;;;112.57;;
70313;SDS011;57725;47.526;18.986;2022-09-23T12:43:48;420.15;;;58.85;;
70313;SDS011;57725;47.526;18.986;2022-09-23T12:46:38;604.13;;;85.93;;
70313;SDS011;57725;47.526;18.986;2022-09-23T12:54:37;574.55;;;87.63;;
70313;SDS011;57725;47.526;18.986;2022-09-23T12:57:05;532.38;;;84.80;;
70313;SDS011;57725;47.526;18.986;2022-09-23T13:02:34;500.67;;;77.53;;
70313;SDS011;57725;47.526;18.986;2022-09-23T13:10:44;498.58;;;75.03;;
70313;SDS011;57725;47.526;18.986;2022-09-23T13:21:59;409.15;;;68.80;;
70313;SDS011;57725;47.526;18.986;2022-09-23T13:26:47;413.55;;;60.97;;
70313;SDS011;57725;47.526;18.986;2022-09-23T13:29:28;405.42;;;58.25;;
70313;SDS011;57725;47.526;18.986;2022-09-23T13:31:59;383.00;;;59.75;;
70313;SDS011;57725;47.526;18.986;2022-09-23T13:34:27;360.58;;;59.13;;
70313;SDS011;57725;47.526;18.986;2022-09-23T13:36:56;369.88;;;61.38;;
70313;SDS011;57725;47.526;18.986;2022-09-23T13:39:26;337.48;;;54.53;;
70313;SDS011;57725;47.526;18.986;2022-09-23T13:41:53;327.30;;;53.35;;
70313;SDS011;57725;47.526;18.986;2022-09-23T13:44:27;245.60;;;41.10;;
70313;SDS011;57725;47.526;18.986;2022-09-23T13:47:00;234.55;;;38.63;;
70313;SDS011;57725;47.526;18.986;2022-09-23T13:49:28;195.38;;;36.28;;
70313;SDS011;57725;47.526;18.986;2022-09-23T13:52:00;183.73;;;34.85;;
70313;SDS011;57725;47.526;18.986;2022-09-23T13:54:33;202.45;;;32.92;;
70313;SDS011;57725;47.526;18.986;2022-09-23T13:57:25;181.23;;;30.65;;
70313;SDS011;57725;47.526;18.986;2022-09-23T13:59:53;175.55;;;30.17;;
70313;SDS011;57725;47.526;18.986;2022-09-23T14:02:23;176.90;;;31.77;;
70313;SDS011;57725;47.526;18.986;2022-09-23T14:04:54;164.05;;;28.70;;
70313;SDS011;57725;47.526;18.986;2022-09-23T14:07:24;159.55;;;29.45;;
70313;SDS011;57725;47.526;18.986;2022-09-23T14:09:51;154.80;;;30.83;;
70313;SDS011;57725;47.526;18.986;2022-09-23T14:12:19;151.95;;;28.63;;
70313;SDS011;57725;47.526;18.986;2022-09-23T14:14:47;130.05;;;24.75;;
70313;SDS011;57725;47.526;18.986;2022-09-23T14:17:19;135.38;;;28.83;;
70313;SDS011;57725;47.526;18.986;2022-09-23T14:19:46;138.48;;;27.13;;
70313;SDS011;57725;47.526;18.986;2022-09-23T14:22:28;142.70;;;28.33;;
70313;SDS011;57725;47.526;18.986;2022-09-23T14:24:54;120.13;;;22.70;;
70313;SDS011;57725;47.526;18.986;2022-09-23T14:27:28;132.50;;;26.25;;
70313;SDS011;57725;47.526;18.986;2022-09-23T14:29:55;120.80;;;24.58;;
70313;SDS011;57725;47.526;18.986;2022-09-23T14:32:21;111.10;;;24.50;;
70313;SDS011;57725;47.526;18.986;2022-09-23T14:40:27;112.55;;;23.33;;
70313;SDS011;57725;47.526;18.986;2022-09-23T14:45:39;105.15;;;22.92;;
70313;SDS011;57725;47.526;18.986;2022-09-23T14:48:08;112.93;;;23.25;;
70313;SDS011;57725;47.526;18.986;2022-09-23T14:50:34;92.00;;;20.02;;
70313;SDS011;57725;47.526;18.986;2022-09-23T14:53:01;100.05;;;20.30;;
70313;SDS011;57725;47.526;18.986;2022-09-23T14:55:27;93.03;;;20.05;;
70313;SDS011;57725;47.526;18.986;2022-09-23T14:58:01;92.80;;;20.75;;
70313;SDS011;57725;47.526;18.986;2022-09-23T15:00:28;79.28;;;18.50;;
70313;SDS011;57725;47.526;18.986;2022-09-23T15:03:02;92.88;;;19.45;;
70313;SDS011;57725;47.526;18.986;2022-09-23T15:05:40;72.32;;;18.40;;
70313;SDS011;57725;47.526;18.986;2022-09-23T15:08:13;83.55;;;17.80;;
70313;SDS011;57725;47.526;18.986;2022-09-23T15:10:44;78.75;;;17.65;;
70313;SDS011;57725;47.526;18.986;2022-09-23T15:13:14;74.20;;;16.40;;
70313;SDS011;57725;47.526;18.986;2022-09-23T15:15:42;70.30;;;17.95;;
70313;SDS011;57725;47.526;18.986;2022-09-23T15:18:20;78.85;;;16.35;;
70313;SDS011;57725;47.526;18.986;2022-09-23T15:20:49;61.72;;;15.85;;
70313;SDS011;57725;47.526;18.986;2022-09-23T15:23:34;62.47;;;14.85;;
70313;SDS011;57725;47.526;18.986;2022-09-23T15:28:38;59.83;;;13.77;;
70313;SDS011;57725;47.526;18.986;2022-09-23T15:31:03;60.90;;;16.05;;
70313;SDS011;57725;47.526;18.986;2022-09-23T15:33:29;68.35;;;15.73;;
70313;SDS011;57725;47.526;18.986;2022-09-23T15:36:00;69.50;;;14.07;;
70313;SDS011;57725;47.526;18.986;2022-09-23T15:38:25;60.47;;;13.88;;
70313;SDS011;57725;47.526;18.986;2022-09-23T15:40:51;57.45;;;14.35;;
70313;SDS011;57725;47.526;18.986;2022-09-23T15:43:18;55.28;;;13.40;;
70313;SDS011;57725;47.526;18.986;2022-09-23T15:45:50;51.67;;;14.15;;
70313;SDS011;57725;47.526;18.986;2022-09-23T15:48:19;58.67;;;15.05;;
70313;SDS011;57725;47.526;18.986;2022-09-23T15:50:50;55.72;;;13.15;;
70313;SDS011;57725;47.526;18.986;2022-09-23T15:53:21;48.88;;;12.90;;
70313;SDS011;57725;47.526;18.986;2022-09-23T15:55:51;53.22;;;12.48;;
70313;SDS011;57725;47.526;18.986;2022-09-23T15:58:17;47.15;;;11.88;;
70313;SDS011;57725;47.526;18.986;2022-09-23T16:00:44;48.65;;;12.57;;
70313;SDS011;57725;47.526;18.986;2022-09-23T16:03:13;47.10;;;11.88;;
70313;SDS011;57725;47.526;18.986;2022-09-23T16:05:41;42.75;;;12.18;;
70313;SDS011;57725;47.526;18.986;2022-09-23T16:08:10;51.65;;;12.63;;
70313;SDS011;57725;47.526;18.986;2022-09-23T16:10:39;48.75;;;13.15;;
70313;SDS011;57725;47.526;18.986;2022-09-23T16:13:13;43.83;;;11.93;;
70313;SDS011;57725;47.526;18.986;2022-09-23T16:15:39;44.72;;;11.23;;
70313;SDS011;57725;47.526;18.986;2022-09-23T16:18:08;39.67;;;11.75;;
70313;SDS011;57725;47.526;18.986;2022-09-23T16:20:39;40.60;;;10.63;;
70313;SDS011;57725;47.526;18.986;2022-09-23T16:23:07;44.10;;;10.52;;
70313;SDS011;57725;47.526;18.986;2022-09-23T16:25:57;36.22;;;10.20;;
70313;SDS011;57725;47.526;18.986;2022-09-23T16:28:38;36.97;;;10.70;;
70313;SDS011;57725;47.526;18.986;2022-09-23T16:31:03;38.00;;;10.90;;
70313;SDS011;57725;47.526;18.986;2022-09-23T16:33:31;37.92;;;11.32;;
70313;SDS011;57725;47.526;18.986;2022-09-23T16:35:56;32.85;;;9.45;;
70313;SDS011;57725;47.526;18.986;2022-09-23T16:38:24;36.25;;;11.48;;
70313;SDS011;57725;47.526;18.986;2022-09-23T16:40:50;33.58;;;9.80;;
70313;SDS011;57725;47.526;18.986;2022-09-23T16:43:16;32.03;;;10.40;;
70313;SDS011;57725;47.526;18.986;2022-09-23T16:45:43;32.78;;;9.23;;
70313;SDS011;57725;47.526;18.986;2022-09-23T16:48:11;34.08;;;9.30;;
70313;SDS011;57725;47.526;18.986;2022-09-23T16:50:36;32.88;;;9.38;;
70313;SDS011;57725;47.526;18.986;2022-09-23T16:53:02;28.33;;;8.15;;
70313;SDS011;57725;47.526;18.986;2022-09-23T16:55:27;29.83;;;8.75;;
70313;SDS011;57725;47.526;18.986;2022-09-23T16:57:55;32.10;;;8.63;;
70313;SDS011;57725;47.526;18.986;2022-09-23T17:00:20;23.67;;;8.32;;
70313;SDS011;57725;47.526;18.986;2022-09-23T17:05:52;26.23;;;8.80;;
70313;SDS011;57725;47.526;18.986;2022-09-23T17:08:20;24.95;;;8.77;;
70313;SDS011;57725;47.526;18.986;2022-09-23T17:10:52;26.20;;;7.53;;
70313;SDS011;57725;47.526;18.986;2022-09-23T17:13:20;23.95;;;7.13;;
70313;SDS011;57725;47.526;18.986;2022-09-23T17:15:49;23.33;;;7.97;;
70313;SDS011;57725;47.526;18.986;2022-09-23T17:18:15;23.35;;;8.30;;
70313;SDS011;57725;47.526;18.986;2022-09-23T17:20:42;23.23;;;8.05;;
70313;SDS011;57725;47.526;18.986;2022-09-23T17:23:08;21.13;;;7.50;;
70313;SDS011;57725;47.526;18.986;2022-09-23T17:25:33;21.35;;;6.50;;
70313;SDS011;57725;47.526;18.986;2022-09-23T17:27:59;21.45;;;7.45;;
70313;SDS011;57725;47.526;18.986;2022-09-23T17:30:25;20.35;;;6.65;;
70313;SDS011;57725;47.526;18.986;2022-09-23T17:32:51;18.02;;;7.45;;
70313;SDS011;57725;47.526;18.986;2022-09-23T17:35:17;18.65;;;7.13;;
70313;SDS011;57725;47.526;18.986;2022-09-23T17:37:43;17.23;;;6.65;;
70313;SDS011;57725;47.526;18.986;2022-09-23T17:40:10;15.23;;;6.00;;
70313;SDS011;57725;47.526;18.986;2022-09-23T17:42:39;18.60;;;6.30;;
70313;SDS011;57725;47.526;18.986;2022-09-23T17:45:06;21.90;;;7.47;;
70313;SDS011;57725;47.526;18.986;2022-09-23T17:47:32;18.77;;;5.93;;
70313;SDS011;57725;47.526;18.986;2022-09-23T17:49:58;18.65;;;7.20;;